Kezdőlap
METAR-TAF:

METAR-TAF

Repülőterek :

Whale Cove, Nunavut, Kanada

földrajzi szélesség: 62-14N, földrajzi hosszúság: 092-36W, magasság: 20 m

Jelenlegi meteorológiai megfigyelések

A jelentés 1 órával és 3 perccel ezelõtt készült, 19:00 UTC
Észak-északnyugati szél 17 kt széllökések: 23 kt
Hőmérséklet -34°C
Páratartalom 67%
Légköri nyomás 1029 hPa
Látótávolság: 4.0 km
Kevés felhő 24000 lábon
hófúvás

METAR: CYXN 171900Z 33017G23KT 2 1/2SM BLSN FEW240 M34/M38 A3039 RMK CI2 SLP294

Idő: 14:03 (20:03 UTC)


TAF: hiányzik

Meteorológiai megfigyelések és előrejelzések több, mint 4000 repülőtéren (METAR és TAF jelentéseket).

A térképen piros és sárga pontok jelzik az elérhető meteorológiai állomásokat.

Mozgassa az egeret a pont fölött, hogy megjelenjen az állomás neve.

Azután kattintson az időjárási megfigyelések és előrejelzések megtekintéséhez.

A térkép megváltoztatása: kattintson a fekete keresztel jelölt zöld gombra ráközelítéshez, a vonallal jelölt zöld gombra távolításhoz, vagy a zöld nyilakra a szomszédos térképek eléréséhez.


METAR-TAF: